Wildwood, California
Current Conditions -  °F | °C
As of 3:55 PM on Saturday 25 Oct 2014 (Local Time) from KO54 Reporting Station
Broken Clouds Broken Clouds  
Wind Chill: 52°   Ceiling: 2800
Heat Index: 52°   Visibility: 2.5mi
Dew Point: 48°   Wind: 3mph
Humidity: 88%   Direction: 230°SW
Pressure: 29.95"   Gusts: NA
Location:  40.2679°N, 122.919°W
Report Text: KO54 252255Z AUTO 23003KT 2 1/2SM BKN028 BKN038 11/09 A2995 RMK AO1 P0011
Loading
Personal Weather Stations






























Interactive Weather Map
Tropical Storm Tracking
New forecast layout! Learn more

10-Day Weather Forecast

Advertisements
Track Severe Weather on mobile